sensor_id;sensor_type;location;lat;lon;timestamp;P1;durP1;ratioP1;P2;durP2;ratioP2
30605;SDS011;17371;51.328;3.860;2023-02-12T00:02:12;9.90;;;6.70;;
30605;SDS011;17371;51.328;3.860;2023-02-12T00:04:39;15.82;;;7.22;;
30605;SDS011;17371;51.328;3.860;2023-02-12T00:07:04;10.70;;;7.33;;
30605;SDS011;17371;51.328;3.860;2023-02-12T00:09:30;12.13;;;7.75;;
30605;SDS011;17371;51.328;3.860;2023-02-12T00:11:55;16.20;;;9.40;;
30605;SDS011;17371;51.328;3.860;2023-02-12T00:14:20;14.07;;;9.20;;
30605;SDS011;17371;51.328;3.860;2023-02-12T00:16:46;11.37;;;8.20;;
30605;SDS011;17371;51.328;3.860;2023-02-12T00:19:11;13.75;;;8.93;;
30605;SDS011;17371;51.328;3.860;2023-02-12T00:21:38;13.48;;;9.05;;
30605;SDS011;17371;51.328;3.860;2023-02-12T00:24:03;11.10;;;7.60;;
30605;SDS011;17371;51.328;3.860;2023-02-12T00:26:29;9.98;;;6.90;;
30605;SDS011;17371;51.328;3.860;2023-02-12T00:28:55;11.83;;;6.60;;
30605;SDS011;17371;51.328;3.860;2023-02-12T00:31:21;11.10;;;6.95;;
30605;SDS011;17371;51.328;3.860;2023-02-12T00:33:47;12.85;;;8.93;;
30605;SDS011;17371;51.328;3.860;2023-02-12T00:36:13;11.07;;;7.82;;
30605;SDS011;17371;51.328;3.860;2023-02-12T00:38:41;12.17;;;7.47;;
30605;SDS011;17371;51.328;3.860;2023-02-12T00:41:07;12.52;;;8.57;;
30605;SDS011;17371;51.328;3.860;2023-02-12T00:43:32;12.50;;;7.57;;
30605;SDS011;17371;51.328;3.860;2023-02-12T00:45:58;11.82;;;8.20;;
30605;SDS011;17371;51.328;3.860;2023-02-12T00:48:23;14.65;;;9.02;;
30605;SDS011;17371;51.328;3.860;2023-02-12T00:50:49;13.53;;;8.87;;
30605;SDS011;17371;51.328;3.860;2023-02-12T00:53:14;12.07;;;8.37;;
30605;SDS011;17371;51.328;3.860;2023-02-12T00:55:41;12.27;;;6.63;;
30605;SDS011;17371;51.328;3.860;2023-02-12T00:58:07;11.77;;;8.35;;
30605;SDS011;17371;51.328;3.860;2023-02-12T01:00:33;12.07;;;7.88;;
30605;SDS011;17371;51.328;3.860;2023-02-12T01:02:58;13.80;;;8.70;;
30605;SDS011;17371;51.328;3.860;2023-02-12T01:05:24;13.07;;;7.90;;
30605;SDS011;17371;51.328;3.860;2023-02-12T01:07:49;11.50;;;7.77;;
30605;SDS011;17371;51.328;3.860;2023-02-12T01:10:15;11.30;;;7.38;;
30605;SDS011;17371;51.328;3.860;2023-02-12T01:12:42;15.77;;;8.27;;
30605;SDS011;17371;51.328;3.860;2023-02-12T01:15:08;10.82;;;7.63;;
30605;SDS011;17371;51.328;3.860;2023-02-12T01:17:34;11.65;;;8.43;;
30605;SDS011;17371;51.328;3.860;2023-02-12T01:19:59;11.97;;;7.20;;
30605;SDS011;17371;51.328;3.860;2023-02-12T01:22:24;11.93;;;7.43;;
30605;SDS011;17371;51.328;3.860;2023-02-12T01:24:50;10.60;;;7.37;;
30605;SDS011;17371;51.328;3.860;2023-02-12T01:27:15;12.18;;;7.63;;
30605;SDS011;17371;51.328;3.860;2023-02-12T01:29:42;9.93;;;6.97;;
30605;SDS011;17371;51.328;3.860;2023-02-12T01:32:07;12.25;;;7.88;;
30605;SDS011;17371;51.328;3.860;2023-02-12T01:34:33;12.07;;;7.93;;
30605;SDS011;17371;51.328;3.860;2023-02-12T01:36:58;11.87;;;7.40;;
30605;SDS011;17371;51.328;3.860;2023-02-12T01:39:23;9.40;;;6.47;;
30605;SDS011;17371;51.328;3.860;2023-02-12T01:41:49;9.60;;;6.27;;
30605;SDS011;17371;51.328;3.860;2023-02-12T01:44:15;10.03;;;7.00;;
30605;SDS011;17371;51.328;3.860;2023-02-12T01:46:43;11.02;;;6.40;;
30605;SDS011;17371;51.328;3.860;2023-02-12T01:49:11;9.32;;;6.53;;
30605;SDS011;17371;51.328;3.860;2023-02-12T01:51:38;10.38;;;6.80;;
30605;SDS011;17371;51.328;3.860;2023-02-12T01:54:05;9.50;;;6.43;;
30605;SDS011;17371;51.328;3.860;2023-02-12T01:56:31;9.20;;;5.97;;
30605;SDS011;17371;51.328;3.860;2023-02-12T01:58:57;10.07;;;6.70;;
30605;SDS011;17371;51.328;3.860;2023-02-12T02:01:23;11.73;;;6.30;;
30605;SDS011;17371;51.328;3.860;2023-02-12T02:03:52;10.18;;;6.70;;
30605;SDS011;17371;51.328;3.860;2023-02-12T02:06:21;9.00;;;6.40;;
30605;SDS011;17371;51.328;3.860;2023-02-12T02:08:50;10.60;;;6.68;;
30605;SDS011;17371;51.328;3.860;2023-02-12T02:11:15;8.80;;;6.18;;
30605;SDS011;17371;51.328;3.860;2023-02-12T02:13:41;9.75;;;6.53;;
30605;SDS011;17371;51.328;3.860;2023-02-12T02:16:09;10.77;;;6.93;;
30605;SDS011;17371;51.328;3.860;2023-02-12T02:18:40;9.70;;;7.00;;
30605;SDS011;17371;51.328;3.860;2023-02-12T02:21:21;11.77;;;6.77;;
30605;SDS011;17371;51.328;3.860;2023-02-12T02:27:26;9.02;;;6.20;;
30605;SDS011;17371;51.328;3.860;2023-02-12T02:32:48;10.38;;;5.97;;
30605;SDS011;17371;51.328;3.860;2023-02-12T02:35:16;8.93;;;5.93;;
30605;SDS011;17371;51.328;3.860;2023-02-12T02:37:46;9.40;;;6.30;;
30605;SDS011;17371;51.328;3.860;2023-02-12T02:40:15;10.60;;;6.50;;
30605;SDS011;17371;51.328;3.860;2023-02-12T02:42:43;11.00;;;6.60;;
30605;SDS011;17371;51.328;3.860;2023-02-12T02:45:12;11.95;;;6.72;;
30605;SDS011;17371;51.328;3.860;2023-02-12T02:47:42;11.53;;;7.07;;
30605;SDS011;17371;51.328;3.860;2023-02-12T02:50:09;10.38;;;7.03;;
30605;SDS011;17371;51.328;3.860;2023-02-12T02:52:39;10.32;;;6.45;;
30605;SDS011;17371;51.328;3.860;2023-02-12T02:55:07;10.45;;;6.72;;
30605;SDS011;17371;51.328;3.860;2023-02-12T02:57:35;10.13;;;6.88;;
30605;SDS011;17371;51.328;3.860;2023-02-12T03:00:05;11.73;;;6.77;;
30605;SDS011;17371;51.328;3.860;2023-02-12T03:02:38;11.25;;;6.60;;
30605;SDS011;17371;51.328;3.860;2023-02-12T03:05:07;9.90;;;6.47;;
30605;SDS011;17371;51.328;3.860;2023-02-12T03:07:35;8.45;;;5.95;;
30605;SDS011;17371;51.328;3.860;2023-02-12T03:10:03;9.93;;;6.82;;
30605;SDS011;17371;51.328;3.860;2023-02-12T03:12:32;9.60;;;6.23;;
30605;SDS011;17371;51.328;3.860;2023-02-12T03:14:59;10.05;;;6.43;;
30605;SDS011;17371;51.328;3.860;2023-02-12T03:17:28;10.15;;;6.28;;
30605;SDS011;17371;51.328;3.860;2023-02-12T03:19:56;11.77;;;7.43;;
30605;SDS011;17371;51.328;3.860;2023-02-12T03:22:26;11.07;;;7.75;;
30605;SDS011;17371;51.328;3.860;2023-02-12T03:24:55;11.50;;;6.97;;
30605;SDS011;17371;51.328;3.860;2023-02-12T03:27:25;11.73;;;7.47;;
30605;SDS011;17371;51.328;3.860;2023-02-12T03:29:53;14.50;;;8.18;;
30605;SDS011;17371;51.328;3.860;2023-02-12T03:32:22;12.43;;;7.27;;
30605;SDS011;17371;51.328;3.860;2023-02-12T03:34:54;13.23;;;8.27;;
30605;SDS011;17371;51.328;3.860;2023-02-12T03:37:27;12.02;;;7.18;;
30605;SDS011;17371;51.328;3.860;2023-02-12T03:39:55;12.50;;;7.72;;
30605;SDS011;17371;51.328;3.860;2023-02-12T03:42:26;11.40;;;6.60;;
30605;SDS011;17371;51.328;3.860;2023-02-12T03:44:59;10.63;;;6.65;;
30605;SDS011;17371;51.328;3.860;2023-02-12T03:47:31;11.27;;;7.00;;
30605;SDS011;17371;51.328;3.860;2023-02-12T03:50:05;9.43;;;6.38;;
30605;SDS011;17371;51.328;3.860;2023-02-12T03:52:35;10.07;;;6.78;;
30605;SDS011;17371;51.328;3.860;2023-02-12T03:55:01;10.93;;;6.60;;
30605;SDS011;17371;51.328;3.860;2023-02-12T03:57:29;9.60;;;6.53;;
30605;SDS011;17371;51.328;3.860;2023-02-12T03:59:56;9.85;;;7.03;;
30605;SDS011;17371;51.328;3.860;2023-02-12T04:02:22;10.48;;;6.70;;
30605;SDS011;17371;51.328;3.860;2023-02-12T04:04:47;10.80;;;6.77;;
30605;SDS011;17371;51.328;3.860;2023-02-12T04:07:13;10.43;;;6.90;;
30605;SDS011;17371;51.328;3.860;2023-02-12T04:09:40;11.95;;;6.65;;
30605;SDS011;17371;51.328;3.860;2023-02-12T04:12:08;9.80;;;6.30;;
30605;SDS011;17371;51.328;3.860;2023-02-12T04:14:47;8.75;;;6.20;;
30605;SDS011;17371;51.328;3.860;2023-02-12T04:17:18;9.70;;;6.68;;
30605;SDS011;17371;51.328;3.860;2023-02-12T04:19:49;11.02;;;7.03;;
30605;SDS011;17371;51.328;3.860;2023-02-12T04:22:22;10.93;;;6.82;;
30605;SDS011;17371;51.328;3.860;2023-02-12T04:24:57;9.77;;;6.60;;
30605;SDS011;17371;51.328;3.860;2023-02-12T04:27:28;12.25;;;7.40;;
30605;SDS011;17371;51.328;3.860;2023-02-12T04:30:01;9.55;;;6.45;;
30605;SDS011;17371;51.328;3.860;2023-02-12T04:32:30;9.75;;;6.60;;
30605;SDS011;17371;51.328;3.860;2023-02-12T04:34:58;9.63;;;6.35;;
30605;SDS011;17371;51.328;3.860;2023-02-12T04:37:27;10.17;;;6.60;;
30605;SDS011;17371;51.328;3.860;2023-02-12T04:39:57;11.63;;;6.93;;
30605;SDS011;17371;51.328;3.860;2023-02-12T04:42:23;10.73;;;5.90;;
30605;SDS011;17371;51.328;3.860;2023-02-12T04:44:48;10.17;;;6.37;;
30605;SDS011;17371;51.328;3.860;2023-02-12T04:47:14;11.83;;;7.00;;
30605;SDS011;17371;51.328;3.860;2023-02-12T04:49:40;9.82;;;6.47;;
30605;SDS011;17371;51.328;3.860;2023-02-12T04:52:06;10.82;;;6.50;;
30605;SDS011;17371;51.328;3.860;2023-02-12T04:54:32;10.73;;;7.03;;
30605;SDS011;17371;51.328;3.860;2023-02-12T04:56:59;10.77;;;6.95;;
30605;SDS011;17371;51.328;3.860;2023-02-12T04:59:25;10.05;;;7.20;;
30605;SDS011;17371;51.328;3.860;2023-02-12T05:01:50;11.77;;;7.23;;
30605;SDS011;17371;51.328;3.860;2023-02-12T05:04:16;12.60;;;7.70;;
30605;SDS011;17371;51.328;3.860;2023-02-12T05:06:42;12.65;;;7.50;;
30605;SDS011;17371;51.328;3.860;2023-02-12T05:09:09;9.90;;;6.63;;
30605;SDS011;17371;51.328;3.860;2023-02-12T05:11:38;8.85;;;6.20;;
30605;SDS011;17371;51.328;3.860;2023-02-12T05:14:04;11.20;;;6.23;;
30605;SDS011;17371;51.328;3.860;2023-02-12T05:16:30;9.75;;;6.38;;
30605;SDS011;17371;51.328;3.860;2023-02-12T05:18:55;10.37;;;7.10;;
30605;SDS011;17371;51.328;3.860;2023-02-12T05:21:21;13.57;;;7.67;;
30605;SDS011;17371;51.328;3.860;2023-02-12T05:23:46;14.90;;;7.30;;
30605;SDS011;17371;51.328;3.860;2023-02-12T05:26:12;12.73;;;7.43;;
30605;SDS011;17371;51.328;3.860;2023-02-12T05:28:38;10.63;;;6.40;;
30605;SDS011;17371;51.328;3.860;2023-02-12T05:31:06;11.77;;;6.70;;
30605;SDS011;17371;51.328;3.860;2023-02-12T05:33:32;10.50;;;5.80;;
30605;SDS011;17371;51.328;3.860;2023-02-12T05:36:01;10.15;;;6.28;;
30605;SDS011;17371;51.328;3.860;2023-02-12T05:38:28;10.03;;;6.93;;
30605;SDS011;17371;51.328;3.860;2023-02-12T05:40:53;11.23;;;6.57;;
30605;SDS011;17371;51.328;3.860;2023-02-12T05:43:19;10.82;;;7.43;;
30605;SDS011;17371;51.328;3.860;2023-02-12T05:45:44;10.23;;;6.53;;
30605;SDS011;17371;51.328;3.860;2023-02-12T05:48:11;10.87;;;7.67;;
30605;SDS011;17371;51.328;3.860;2023-02-12T05:50:36;17.50;;;8.70;;
30605;SDS011;17371;51.328;3.860;2023-02-12T05:53:01;16.40;;;8.97;;
30605;SDS011;17371;51.328;3.860;2023-02-12T05:55:27;11.83;;;7.03;;
30605;SDS011;17371;51.328;3.860;2023-02-12T05:57:52;12.38;;;7.32;;
30605;SDS011;17371;51.328;3.860;2023-02-12T06:00:18;11.73;;;7.17;;
30605;SDS011;17371;51.328;3.860;2023-02-12T06:02:44;12.18;;;7.30;;
30605;SDS011;17371;51.328;3.860;2023-02-12T06:05:11;11.17;;;7.30;;
30605;SDS011;17371;51.328;3.860;2023-02-12T06:07:36;11.57;;;7.38;;
30605;SDS011;17371;51.328;3.860;2023-02-12T06:10:02;11.43;;;7.10;;
30605;SDS011;17371;51.328;3.860;2023-02-12T06:12:27;15.43;;;8.80;;
30605;SDS011;17371;51.328;3.860;2023-02-12T06:14:53;16.27;;;9.47;;
30605;SDS011;17371;51.328;3.860;2023-02-12T06:17:18;16.73;;;9.50;;
30605;SDS011;17371;51.328;3.860;2023-02-12T06:19:43;13.10;;;8.23;;
30605;SDS011;17371;51.328;3.860;2023-02-12T06:22:10;15.30;;;9.27;;
30605;SDS011;17371;51.328;3.860;2023-02-12T06:24:36;15.83;;;8.23;;
30605;SDS011;17371;51.328;3.860;2023-02-12T06:27:01;13.52;;;7.15;;
30605;SDS011;17371;51.328;3.860;2023-02-12T06:29:27;11.47;;;7.40;;
30605;SDS011;17371;51.328;3.860;2023-02-12T06:31:52;11.03;;;7.10;;
30605;SDS011;17371;51.328;3.860;2023-02-12T06:34:18;13.55;;;6.75;;
30605;SDS011;17371;51.328;3.860;2023-02-12T06:36:43;11.57;;;6.80;;
30605;SDS011;17371;51.328;3.860;2023-02-12T06:39:11;11.83;;;7.40;;
30605;SDS011;17371;51.328;3.860;2023-02-12T06:41:37;11.43;;;7.88;;
30605;SDS011;17371;51.328;3.860;2023-02-12T06:44:02;13.37;;;7.57;;
30605;SDS011;17371;51.328;3.860;2023-02-12T06:46:28;13.68;;;8.23;;
30605;SDS011;17371;51.328;3.860;2023-02-12T06:48:53;13.87;;;7.97;;
30605;SDS011;17371;51.328;3.860;2023-02-12T06:51:19;14.38;;;8.35;;
30605;SDS011;17371;51.328;3.860;2023-02-12T06:53:45;12.90;;;7.57;;
30605;SDS011;17371;51.328;3.860;2023-02-12T06:56:12;11.67;;;7.27;;
30605;SDS011;17371;51.328;3.860;2023-02-12T06:58:38;14.57;;;8.38;;
30605;SDS011;17371;51.328;3.860;2023-02-12T07:01:07;16.98;;;9.57;;
30605;SDS011;17371;51.328;3.860;2023-02-12T07:03:33;15.13;;;9.00;;
30605;SDS011;17371;51.328;3.860;2023-02-12T07:05:58;17.33;;;8.73;;
30605;SDS011;17371;51.328;3.860;2023-02-12T07:08:24;14.52;;;8.85;;
30605;SDS011;17371;51.328;3.860;2023-02-12T07:10:49;14.37;;;8.23;;
30605;SDS011;17371;51.328;3.860;2023-02-12T07:13:16;13.47;;;7.73;;
30605;SDS011;17371;51.328;3.860;2023-02-12T07:15:41;15.98;;;8.27;;
30605;SDS011;17371;51.328;3.860;2023-02-12T07:18:07;14.30;;;8.53;;
30605;SDS011;17371;51.328;3.860;2023-02-12T07:20:32;14.50;;;9.00;;
30605;SDS011;17371;51.328;3.860;2023-02-12T07:22:57;14.07;;;8.50;;
30605;SDS011;17371;51.328;3.860;2023-02-12T07:25:23;15.37;;;8.90;;
30605;SDS011;17371;51.328;3.860;2023-02-12T07:27:48;15.27;;;9.07;;
30605;SDS011;17371;51.328;3.860;2023-02-12T07:30:16;14.90;;;8.88;;
30605;SDS011;17371;51.328;3.860;2023-02-12T07:32:41;14.80;;;8.90;;
30605;SDS011;17371;51.328;3.860;2023-02-12T07:35:07;15.27;;;9.65;;
30605;SDS011;17371;51.328;3.860;2023-02-12T07:37:32;15.10;;;8.53;;
30605;SDS011;17371;51.328;3.860;2023-02-12T07:39:58;15.57;;;9.27;;
30605;SDS011;17371;51.328;3.860;2023-02-12T07:42:23;16.03;;;9.27;;
30605;SDS011;17371;51.328;3.860;2023-02-12T07:44:48;18.63;;;9.13;;
30605;SDS011;17371;51.328;3.860;2023-02-12T07:47:15;17.87;;;9.00;;
30605;SDS011;17371;51.328;3.860;2023-02-12T07:49:40;15.25;;;9.23;;
30605;SDS011;17371;51.328;3.860;2023-02-12T07:52:06;16.90;;;9.47;;
30605;SDS011;17371;51.328;3.860;2023-02-12T07:54:31;16.90;;;9.45;;
30605;SDS011;17371;51.328;3.860;2023-02-12T07:56:57;16.08;;;9.15;;
30605;SDS011;17371;51.328;3.860;2023-02-12T07:59:22;20.03;;;10.23;;
30605;SDS011;17371;51.328;3.860;2023-02-12T08:01:49;19.40;;;10.25;;
30605;SDS011;17371;51.328;3.860;2023-02-12T08:04:17;16.98;;;9.43;;
30605;SDS011;17371;51.328;3.860;2023-02-12T08:06:44;16.50;;;8.37;;
30605;SDS011;17371;51.328;3.860;2023-02-12T08:09:12;16.15;;;9.30;;
30605;SDS011;17371;51.328;3.860;2023-02-12T08:11:38;16.75;;;9.27;;
30605;SDS011;17371;51.328;3.860;2023-02-12T08:14:04;18.02;;;9.85;;
30605;SDS011;17371;51.328;3.860;2023-02-12T08:16:30;17.07;;;10.40;;
30605;SDS011;17371;51.328;3.860;2023-02-12T08:18:56;19.08;;;10.93;;
30605;SDS011;17371;51.328;3.860;2023-02-12T08:21:23;18.30;;;11.37;;
30605;SDS011;17371;51.328;3.860;2023-02-12T08:23:50;19.67;;;11.02;;
30605;SDS011;17371;51.328;3.860;2023-02-12T08:26:16;19.15;;;11.63;;
30605;SDS011;17371;51.328;3.860;2023-02-12T08:28:43;23.10;;;12.75;;
30605;SDS011;17371;51.328;3.860;2023-02-12T08:31:10;21.30;;;11.93;;
30605;SDS011;17371;51.328;3.860;2023-02-12T08:33:36;21.08;;;12.52;;
30605;SDS011;17371;51.328;3.860;2023-02-12T08:36:03;23.38;;;12.57;;
30605;SDS011;17371;51.328;3.860;2023-02-12T08:38:31;20.23;;;11.45;;
30605;SDS011;17371;51.328;3.860;2023-02-12T08:40:59;21.30;;;12.47;;
30605;SDS011;17371;51.328;3.860;2023-02-12T08:43:25;22.35;;;12.82;;
30605;SDS011;17371;51.328;3.860;2023-02-12T08:45:51;21.92;;;12.68;;
30605;SDS011;17371;51.328;3.860;2023-02-12T08:48:16;23.67;;;13.37;;
30605;SDS011;17371;51.328;3.860;2023-02-12T08:50:41;22.90;;;12.40;;
30605;SDS011;17371;51.328;3.860;2023-02-12T08:53:07;21.10;;;12.80;;
30605;SDS011;17371;51.328;3.860;2023-02-12T08:55:34;26.27;;;13.40;;
30605;SDS011;17371;51.328;3.860;2023-02-12T08:57:59;24.52;;;12.68;;
30605;SDS011;17371;51.328;3.860;2023-02-12T09:00:24;23.80;;;13.40;;
30605;SDS011;17371;51.328;3.860;2023-02-12T09:02:50;20.48;;;11.93;;
30605;SDS011;17371;51.328;3.860;2023-02-12T09:05:15;23.50;;;12.77;;
30605;SDS011;17371;51.328;3.860;2023-02-12T09:07:41;21.20;;;12.10;;
30605;SDS011;17371;51.328;3.860;2023-02-12T09:10:06;23.17;;;12.20;;
30605;SDS011;17371;51.328;3.860;2023-02-12T09:12:33;24.45;;;13.27;;
30605;SDS011;17371;51.328;3.860;2023-02-12T09:14:59;22.80;;;13.40;;
30605;SDS011;17371;51.328;3.860;2023-02-12T09:17:24;24.13;;;13.27;;
30605;SDS011;17371;51.328;3.860;2023-02-12T09:19:49;24.70;;;13.50;;
30605;SDS011;17371;51.328;3.860;2023-02-12T09:22:15;25.10;;;13.20;;
30605;SDS011;17371;51.328;3.860;2023-02-12T09:24:40;21.73;;;11.53;;
30605;SDS011;17371;51.328;3.860;2023-02-12T09:27:06;26.03;;;14.13;;
30605;SDS011;17371;51.328;3.860;2023-02-12T09:29:32;24.80;;;12.88;;
30605;SDS011;17371;51.328;3.860;2023-02-12T09:31:58;23.67;;;13.43;;
30605;SDS011;17371;51.328;3.860;2023-02-12T09:34:23;23.15;;;13.00;;
30605;SDS011;17371;51.328;3.860;2023-02-12T09:36:49;23.55;;;13.48;;
30605;SDS011;17371;51.328;3.860;2023-02-12T09:39:14;23.00;;;13.93;;
30605;SDS011;17371;51.328;3.860;2023-02-12T09:44:25;21.00;;;12.50;;
30605;SDS011;17371;51.328;3.860;2023-02-12T09:46:57;21.67;;;12.77;;
30605;SDS011;17371;51.328;3.860;2023-02-12T09:49:27;26.65;;;13.23;;
30605;SDS011;17371;51.328;3.860;2023-02-12T09:52:09;22.30;;;13.98;;
30605;SDS011;17371;51.328;3.860;2023-02-12T09:54:37;21.43;;;13.33;;
30605;SDS011;17371;51.328;3.860;2023-02-12T09:57:04;23.45;;;12.80;;
30605;SDS011;17371;51.328;3.860;2023-02-12T09:59:32;24.02;;;13.63;;
30605;SDS011;17371;51.328;3.860;2023-02-12T10:02:01;23.10;;;14.02;;
30605;SDS011;17371;51.328;3.860;2023-02-12T10:04:26;22.55;;;13.43;;
30605;SDS011;17371;51.328;3.860;2023-02-12T10:06:55;22.97;;;13.40;;
30605;SDS011;17371;51.328;3.860;2023-02-12T10:09:30;25.20;;;14.63;;
30605;SDS011;17371;51.328;3.860;2023-02-12T10:12:03;23.30;;;13.75;;
30605;SDS011;17371;51.328;3.860;2023-02-12T10:14:45;26.23;;;14.82;;
30605;SDS011;17371;51.328;3.860;2023-02-12T10:17:25;28.45;;;15.48;;
30605;SDS011;17371;51.328;3.860;2023-02-12T10:20:00;26.27;;;15.00;;
30605;SDS011;17371;51.328;3.860;2023-02-12T10:22:37;27.67;;;16.08;;
30605;SDS011;17371;51.328;3.860;2023-02-12T10:25:08;26.63;;;15.80;;
30605;SDS011;17371;51.328;3.860;2023-02-12T10:27:45;24.83;;;15.57;;
30605;SDS011;17371;51.328;3.860;2023-02-12T10:30:15;25.33;;;15.13;;
30605;SDS011;17371;51.328;3.860;2023-02-12T10:32:44;25.67;;;15.40;;
30605;SDS011;17371;51.328;3.860;2023-02-12T10:35:13;25.95;;;14.98;;
30605;SDS011;17371;51.328;3.860;2023-02-12T10:37:41;26.45;;;15.23;;
30605;SDS011;17371;51.328;3.860;2023-02-12T10:40:14;27.98;;;15.45;;
30605;SDS011;17371;51.328;3.860;2023-02-12T10:42:42;25.77;;;15.32;;
30605;SDS011;17371;51.328;3.860;2023-02-12T10:45:11;26.37;;;16.20;;
30605;SDS011;17371;51.328;3.860;2023-02-12T10:47:37;27.55;;;15.63;;
30605;SDS011;17371;51.328;3.860;2023-02-12T10:50:12;27.43;;;16.53;;
30605;SDS011;17371;51.328;3.860;2023-02-12T10:52:43;25.23;;;15.05;;
30605;SDS011;17371;51.328;3.860;2023-02-12T10:55:22;29.23;;;15.93;;
30605;SDS011;17371;51.328;3.860;2023-02-12T10:57:49;25.08;;;15.25;;
30605;SDS011;17371;51.328;3.860;2023-02-12T11:00:20;24.87;;;15.50;;
30605;SDS011;17371;51.328;3.860;2023-02-12T11:02:58;23.98;;;14.15;;
30605;SDS011;17371;51.328;3.860;2023-02-12T11:05:30;23.05;;;14.32;;
30605;SDS011;17371;51.328;3.860;2023-02-12T11:07:57;22.07;;;14.03;;
30605;SDS011;17371;51.328;3.860;2023-02-12T11:10:25;24.05;;;14.93;;
30605;SDS011;17371;51.328;3.860;2023-02-12T11:12:51;22.33;;;15.17;;
30605;SDS011;17371;51.328;3.860;2023-02-12T11:15:18;23.27;;;14.68;;
30605;SDS011;17371;51.328;3.860;2023-02-12T11:17:45;23.13;;;13.45;;
30605;SDS011;17371;51.328;3.860;2023-02-12T11:20:21;23.57;;;13.80;;
30605;SDS011;17371;51.328;3.860;2023-02-12T11:22:50;26.95;;;16.77;;
30605;SDS011;17371;51.328;3.860;2023-02-12T11:25:17;25.13;;;15.20;;
30605;SDS011;17371;51.328;3.860;2023-02-12T11:27:43;24.90;;;15.40;;
30605;SDS011;17371;51.328;3.860;2023-02-12T11:30:13;21.50;;;14.68;;
30605;SDS011;17371;51.328;3.860;2023-02-12T11:32:42;24.77;;;14.70;;
30605;SDS011;17371;51.328;3.860;2023-02-12T11:35:10;24.73;;;15.70;;
30605;SDS011;17371;51.328;3.860;2023-02-12T11:37:38;21.98;;;14.15;;
30605;SDS011;17371;51.328;3.860;2023-02-12T11:40:06;20.40;;;13.70;;
30605;SDS011;17371;51.328;3.860;2023-02-12T11:42:39;18.17;;;12.73;;
30605;SDS011;17371;51.328;3.860;2023-02-12T11:45:05;19.43;;;12.63;;
30605;SDS011;17371;51.328;3.860;2023-02-12T11:47:32;19.60;;;12.07;;
30605;SDS011;17371;51.328;3.860;2023-02-12T11:50:02;17.75;;;12.15;;
30605;SDS011;17371;51.328;3.860;2023-02-12T11:52:33;18.00;;;11.90;;
30605;SDS011;17371;51.328;3.860;2023-02-12T11:55:01;18.45;;;12.45;;
30605;SDS011;17371;51.328;3.860;2023-02-12T11:57:36;17.43;;;12.23;;
30605;SDS011;17371;51.328;3.860;2023-02-12T12:00:03;17.48;;;12.13;;
30605;SDS011;17371;51.328;3.860;2023-02-12T12:02:30;17.85;;;12.40;;
30605;SDS011;17371;51.328;3.860;2023-02-12T12:05:00;16.48;;;11.80;;
30605;SDS011;17371;51.328;3.860;2023-02-12T12:07:31;20.27;;;12.88;;
30605;SDS011;17371;51.328;3.860;2023-02-12T12:09:59;19.87;;;12.00;;
30605;SDS011;17371;51.328;3.860;2023-02-12T12:12:30;18.83;;;11.63;;
30605;SDS011;17371;51.328;3.860;2023-02-12T12:15:03;19.02;;;12.63;;
30605;SDS011;17371;51.328;3.860;2023-02-12T12:17:33;17.40;;;11.13;;
30605;SDS011;17371;51.328;3.860;2023-02-12T12:20:04;19.50;;;12.15;;
30605;SDS011;17371;51.328;3.860;2023-02-12T12:22:42;16.93;;;11.67;;
30605;SDS011;17371;51.328;3.860;2023-02-12T12:25:19;22.05;;;12.75;;
30605;SDS011;17371;51.328;3.860;2023-02-12T12:27:53;19.48;;;12.45;;
30605;SDS011;17371;51.328;3.860;2023-02-12T12:30:24;18.08;;;12.35;;
30605;SDS011;17371;51.328;3.860;2023-02-12T12:32:56;18.15;;;12.25;;
30605;SDS011;17371;51.328;3.860;2023-02-12T12:35:25;18.03;;;11.70;;
30605;SDS011;17371;51.328;3.860;2023-02-12T12:37:53;18.20;;;11.68;;
30605;SDS011;17371;51.328;3.860;2023-02-12T12:40:27;18.15;;;12.27;;
30605;SDS011;17371;51.328;3.860;2023-02-12T12:43:05;18.95;;;12.70;;
30605;SDS011;17371;51.328;3.860;2023-02-12T12:45:49;21.63;;;13.13;;
30605;SDS011;17371;51.328;3.860;2023-02-12T12:48:24;24.97;;;14.33;;
30605;SDS011;17371;51.328;3.860;2023-02-12T12:51:01;22.77;;;14.65;;
30605;SDS011;17371;51.328;3.860;2023-02-12T12:59:18;30.23;;;15.32;;
30605;SDS011;17371;51.328;3.860;2023-02-12T13:01:56;24.60;;;14.17;;
30605;SDS011;17371;51.328;3.860;2023-02-12T13:04:39;24.25;;;14.38;;
30605;SDS011;17371;51.328;3.860;2023-02-12T13:07:15;28.40;;;16.92;;
30605;SDS011;17371;51.328;3.860;2023-02-12T13:12:39;27.23;;;16.52;;
30605;SDS011;17371;51.328;3.860;2023-02-12T13:15:16;27.37;;;17.43;;
30605;SDS011;17371;51.328;3.860;2023-02-12T13:17:46;26.25;;;17.23;;
30605;SDS011;17371;51.328;3.860;2023-02-12T13:20:16;27.60;;;16.98;;
30605;SDS011;17371;51.328;3.860;2023-02-12T13:22:45;28.17;;;17.67;;
30605;SDS011;17371;51.328;3.860;2023-02-12T13:25:17;26.77;;;16.60;;
30605;SDS011;17371;51.328;3.860;2023-02-12T13:27:46;26.87;;;16.13;;
30605;SDS011;17371;51.328;3.860;2023-02-12T13:30:19;27.67;;;17.15;;
30605;SDS011;17371;51.328;3.860;2023-02-12T13:32:48;28.85;;;15.52;;
30605;SDS011;17371;51.328;3.860;2023-02-12T13:35:18;27.15;;;15.48;;
30605;SDS011;17371;51.328;3.860;2023-02-12T13:37:44;28.00;;;16.75;;
30605;SDS011;17371;51.328;3.860;2023-02-12T13:40:14;28.20;;;15.77;;
30605;SDS011;17371;51.328;3.860;2023-02-12T13:42:45;25.83;;;15.77;;
30605;SDS011;17371;51.328;3.860;2023-02-12T13:45:15;25.23;;;15.43;;
30605;SDS011;17371;51.328;3.860;2023-02-12T13:47:50;26.98;;;14.32;;
30605;SDS011;17371;51.328;3.860;2023-02-12T13:50:22;25.70;;;15.27;;
30605;SDS011;17371;51.328;3.860;2023-02-12T13:52:56;26.77;;;15.47;;
30605;SDS011;17371;51.328;3.860;2023-02-12T13:55:24;27.63;;;15.57;;
30605;SDS011;17371;51.328;3.860;2023-02-12T14:00:59;26.17;;;14.52;;
30605;SDS011;17371;51.328;3.860;2023-02-12T14:03:25;25.92;;;15.93;;
30605;SDS011;17371;51.328;3.860;2023-02-12T14:06:05;27.50;;;14.63;;
30605;SDS011;17371;51.328;3.860;2023-02-12T14:08:34;26.48;;;15.70;;
30605;SDS011;17371;51.328;3.860;2023-02-12T14:11:04;30.73;;;17.02;;
30605;SDS011;17371;51.328;3.860;2023-02-12T14:13:32;31.17;;;17.52;;
30605;SDS011;17371;51.328;3.860;2023-02-12T14:22:08;28.85;;;16.42;;
30605;SDS011;17371;51.328;3.860;2023-02-12T14:27:24;29.00;;;16.67;;
30605;SDS011;17371;51.328;3.860;2023-02-12T14:35:44;33.38;;;16.08;;
30605;SDS011;17371;51.328;3.860;2023-02-12T14:41:25;30.30;;;16.88;;
30605;SDS011;17371;51.328;3.860;2023-02-12T14:43:52;33.40;;;17.55;;
30605;SDS011;17371;51.328;3.860;2023-02-12T14:47:11;31.23;;;17.67;;
30605;SDS011;17371;51.328;3.860;2023-02-12T14:49:41;31.83;;;17.85;;
30605;SDS011;17371;51.328;3.860;2023-02-12T14:52:13;31.95;;;18.30;;
30605;SDS011;17371;51.328;3.860;2023-02-12T14:54:41;30.98;;;17.58;;
30605;SDS011;17371;51.328;3.860;2023-02-12T14:57:10;33.33;;;18.20;;
30605;SDS011;17371;51.328;3.860;2023-02-12T14:59:39;33.03;;;17.77;;
30605;SDS011;17371;51.328;3.860;2023-02-12T15:02:06;30.88;;;17.55;;
30605;SDS011;17371;51.328;3.860;2023-02-12T15:04:36;33.45;;;16.85;;
30605;SDS011;17371;51.328;3.860;2023-02-12T15:07:04;29.17;;;14.98;;
30605;SDS011;17371;51.328;3.860;2023-02-12T15:09:32;34.22;;;15.82;;
30605;SDS011;17371;51.328;3.860;2023-02-12T15:12:01;29.43;;;15.87;;
30605;SDS011;17371;51.328;3.860;2023-02-12T15:14:29;27.42;;;15.20;;
30605;SDS011;17371;51.328;3.860;2023-02-12T15:16:56;28.00;;;15.80;;